Time;durP1;ratioP1;P1;durP2;ratioP2;P2;SDS_P1;SDS_P2;PMS_P1;PMS_P2;Temp;Humidity;BMP_temperature;BMP_pressure;BME280_temperature;BME280_humidity;BME280_pressure;Samples;Min_cycle;Max_cycle;Signal;HPM_P1;HPM_P2
2021/10/06 00:00:23;;;;;;;;;;;;;;;7.92;57.08;102520.63;4874409;29;19952;-76
2021/10/06 00:02:49;;;;;;;;;;;;;;;7.87;56.63;102527.28;4875003;29;19952;-77
2021/10/06 00:05:15;;;;;;;;;;;;;;;7.82;56.94;102521.91;4873406;29;19932;-77
2021/10/06 00:07:41;;;;;;;;;;;;;;;7.83;57.33;102520.19;4872808;29;20063;-77
2021/10/06 00:10:06;;;;;;;;;;;;;;;7.86;57.28;102522.03;4857088;29;19920;-76
2021/10/06 00:12:32;;;;;;;;;;;;;;;7.81;57.15;102532.19;4879557;29;19979;-76
2021/10/06 00:14:58;;;;;;;;;;;;;;;7.75;57.40;102532.81;4898078;29;19916;-76
2021/10/06 00:17:24;;;;;;;;;;;;;;;7.74;57.35;102536.22;4898882;29;19916;-76
2021/10/06 00:19:50;;;;;;;;;;;;;;;7.68;57.09;102538.50;4890146;29;19924;-76
2021/10/06 00:22:15;;;;;;;;;;;;;;;7.66;57.26;102529.78;4872530;29;19928;-76
2021/10/06 00:24:41;;;;;;;;;;;;;;;7.72;57.77;102536.97;4874184;29;19928;-77
2021/10/06 00:27:07;;;;;;;;;;;;;;;7.77;57.52;102538.94;4873253;29;19935;-77
2021/10/06 00:29:33;;;;;;;;;;;;;;;7.78;57.79;102534.63;4873296;29;20599;-76
2021/10/06 00:31:58;;;;;;;;;;;;;;;7.78;57.51;102539.81;4873856;29;19923;-75
2021/10/06 00:34:24;;;;;;;;;;;;;;;7.75;57.89;102537.09;4872641;29;19935;-76
2021/10/06 00:36:49;;;;;;;;;;;;;;;7.77;57.25;102535.44;4857237;29;20434;-77
2021/10/06 00:39:15;;;;;;;;;;;;;;;7.82;57.88;102542.66;4874911;29;19975;-75
2021/10/06 00:41:40;;;;;;;;;;;;;;;7.80;57.20;102528.72;4875086;29;20246;-76
2021/10/06 00:44:12;;;;;;;;;;;;;;;7.83;57.81;102526.25;4875561;29;19979;-77
2021/10/06 00:46:38;;;;;;;;;;;;;;;7.69;57.27;102533.41;4875093;29;20352;-77
2021/10/06 00:49:03;;;;;;;;;;;;;;;7.64;57.69;102537.47;4860758;29;20062;-76
2021/10/06 00:51:29;;;;;;;;;;;;;;;7.62;57.96;102536.53;4877513;29;19924;-76
2021/10/06 00:53:54;;;;;;;;;;;;;;;7.62;57.83;102539.13;4876904;29;19923;-77
2021/10/06 00:56:20;;;;;;;;;;;;;;;7.65;57.71;102547.03;4877284;29;20281;-77
2021/10/06 00:58:46;;;;;;;;;;;;;;;7.63;57.30;102539.97;4877096;29;19982;-78
2021/10/06 01:01:11;;;;;;;;;;;;;;;7.64;58.39;102540.06;4863015;29;19927;-76
2021/10/06 01:03:37;;;;;;;;;;;;;;;7.61;57.87;102539.94;4877109;29;19924;-77
2021/10/06 01:06:02;;;;;;;;;;;;;;;7.53;57.99;102536.06;4874950;29;19931;-76
2021/10/06 01:08:28;;;;;;;;;;;;;;;7.49;58.32;102532.47;4875472;29;19924;-76
2021/10/06 01:10:54;;;;;;;;;;;;;;;7.50;58.32;102536.81;4875351;29;20022;-76
2021/10/06 01:13:20;;;;;;;;;;;;;;;7.58;58.32;102541.50;4844134;29;20066;-76
2021/10/06 01:15:46;;;;;;;;;;;;;;;7.70;58.31;102539.47;4876949;29;20018;-77
2021/10/06 01:18:11;;;;;;;;;;;;;;;7.71;58.03;102537.78;4876370;29;20414;-75
2021/10/06 01:20:38;;;;;;;;;;;;;;;7.76;58.31;102539.75;4875639;29;20363;-77
2021/10/06 01:23:03;;;;;;;;;;;;;;;7.77;57.70;102540.63;4876421;29;19923;-77
2021/10/06 01:25:29;;;;;;;;;;;;;;;7.81;57.57;102542.56;4877594;29;20411;-76
2021/10/06 01:27:54;;;;;;;;;;;;;;;7.82;57.40;102542.66;4880702;29;19928;-77
2021/10/06 01:30:20;;;;;;;;;;;;;;;7.73;57.07;102546.50;4878384;29;19967;-75
2021/10/06 01:32:46;;;;;;;;;;;;;;;7.70;57.50;102547.25;4875024;29;19930;-75
2021/10/06 01:35:14;;;;;;;;;;;;;;;7.71;57.33;102545.56;4876310;29;19998;-77
2021/10/06 01:37:40;;;;;;;;;;;;;;;7.76;57.61;102544.03;4859660;29;19959;-75
2021/10/06 01:40:13;;;;;;;;;;;;;;;7.63;57.39;102548.66;4876330;29;19995;-78
2021/10/06 01:42:39;;;;;;;;;;;;;;;7.47;56.98;102553.94;4876913;29;19924;-76
2021/10/06 01:45:06;;;;;;;;;;;;;;;7.34;57.58;102542.09;4874879;29;19951;-77
2021/10/06 01:47:31;;;;;;;;;;;;;;;7.32;57.85;102546.31;4878153;29;19927;-78
2021/10/06 01:49:57;;;;;;;;;;;;;;;7.39;58.05;102556.16;4859354;29;20340;-76
2021/10/06 01:52:23;;;;;;;;;;;;;;;7.45;57.35;102550.38;4896239;29;19931;-77
2021/10/06 01:54:50;;;;;;;;;;;;;;;7.22;58.11;102553.63;4897533;29;19915;-78
2021/10/06 01:57:16;;;;;;;;;;;;;;;7.15;57.79;102555.84;4895783;29;20100;-76
2021/10/06 01:59:44;;;;;;;;;;;;;;;7.16;58.56;102558.53;4878326;29;19927;-77
2021/10/06 02:02:09;;;;;;;;;;;;;;;7.01;58.39;102565.50;4879235;29;19954;-78
2021/10/06 02:04:35;;;;;;;;;;;;;;;7.01;58.82;102565.50;4895914;29;19935;-77
2021/10/06 02:07:00;;;;;;;;;;;;;;;7.08;58.82;102563.31;4900982;29;19915;-77
2021/10/06 02:09:26;;;;;;;;;;;;;;;7.07;58.25;102569.28;4885250;29;19916;-76
2021/10/06 02:11:51;;;;;;;;;;;;;;;7.00;58.32;102571.50;4886945;29;20680;-76
2021/10/06 02:14:17;;;;;;;;;;;;;;;7.03;58.61;102567.38;4876668;29;19930;-76
2021/10/06 02:16:42;;;;;;;;;;;;;;;7.01;58.92;102571.59;4876886;29;20424;-78
2021/10/06 02:19:08;;;;;;;;;;;;;;;7.00;58.37;102572.41;4861823;29;19950;-77
2021/10/06 02:21:34;;;;;;;;;;;;;;;6.92;58.38;102572.03;4878464;29;19974;-78
2021/10/06 02:23:59;;;;;;;;;;;;;;;6.84;58.55;102573.31;4887950;29;20095;-76
2021/10/06 02:26:25;;;;;;;;;;;;;;;6.73;58.01;102579.66;4871519;29;20355;-77
2021/10/06 02:28:50;;;;;;;;;;;;;;;6.57;58.80;102584.03;4875242;29;19964;-77
2021/10/06 02:31:16;;;;;;;;;;;;;;;6.54;58.98;102583.00;4873539;29;19967;-77
2021/10/06 02:33:41;;;;;;;;;;;;;;;6.58;58.63;102588.41;4875689;29;20452;-77
2021/10/06 02:36:07;;;;;;;;;;;;;;;6.61;58.11;102587.69;4873877;29;19924;-76
2021/10/06 02:38:32;;;;;;;;;;;;;;;6.65;58.83;102588.72;4873355;29;19974;-76
2021/10/06 02:40:58;;;;;;;;;;;;;;;6.66;58.41;102587.91;4873706;29;20296;-76
2021/10/06 02:43:23;;;;;;;;;;;;;;;6.66;58.79;102596.56;4860409;29;20332;-77
2021/10/06 02:45:49;;;;;;;;;;;;;;;6.69;58.89;102591.53;4874342;29;19924;-75
2021/10/06 02:48:16;;;;;;;;;;;;;;;6.63;58.63;102597.28;4858142;29;19986;-76
2021/10/06 02:50:42;;;;;;;;;;;;;;;6.50;58.38;102592.31;4858092;29;20018;-75
2021/10/06 02:53:07;;;;;;;;;;;;;;;6.51;58.74;102604.41;4858080;29;20018;-77
2021/10/06 02:55:33;;;;;;;;;;;;;;;6.39;58.05;102609.84;4873970;29;19928;-76
2021/10/06 02:57:58;;;;;;;;;;;;;;;6.24;58.10;102604.72;4873213;29;19944;-76
2021/10/06 03:00:24;;;;;;;;;;;;;;;6.09;58.48;102604.78;4873493;29;20003;-76
2021/10/06 03:02:50;;;;;;;;;;;;;;;5.95;59.27;102611.75;4878506;29;20349;-77
2021/10/06 03:05:15;;;;;;;;;;;;;;;5.98;59.69;102616.19;4865404;29;20528;-77
2021/10/06 03:07:41;;;;;;;;;;;;;;;5.92;60.03;102614.16;4874612;29;19931;-78
2021/10/06 03:10:08;;;;;;;;;;;;;;;5.92;60.22;102610.69;4858289;29;19924;-80
2021/10/06 03:12:34;;;;;;;;;;;;;;;5.89;60.25;102616.56;4873835;29;20030;-76
2021/10/06 03:14:59;;;;;;;;;;;;;;;5.99;60.00;102623.13;4874892;29;20011;-78
2021/10/06 03:17:25;;;;;;;;;;;;;;;6.02;59.75;102621.66;4873361;29;19932;-76
2021/10/06 03:19:50;;;;;;;;;;;;;;;5.99;59.79;102617.97;4854647;29;19990;-76
2021/10/06 03:22:16;;;;;;;;;;;;;;;5.82;59.75;102617.94;4873501;29;20280;-76
2021/10/06 03:24:41;;;;;;;;;;;;;;;5.73;59.26;102623.47;4875096;29;19927;-76
2021/10/06 03:27:07;;;;;;;;;;;;;;;5.65;60.23;102622.16;4871032;29;19931;-74
2021/10/06 03:29:32;;;;;;;;;;;;;;;5.60;60.29;102623.59;4870644;29;20502;-76
2021/10/06 03:32:00;;;;;;;;;;;;;;;5.50;60.51;102626.44;4874010;29;19995;-75
2021/10/06 03:34:25;;;;;;;;;;;;;;;5.50;60.71;102627.34;4873787;29;19934;-76
2021/10/06 03:36:51;;;;;;;;;;;;;;;5.46;60.77;102630.56;4874488;29;19923;-78
2021/10/06 03:39:16;;;;;;;;;;;;;;;5.38;60.28;102636.97;4874105;29;19983;-78
2021/10/06 03:41:42;;;;;;;;;;;;;;;5.41;61.06;102635.44;4873646;29;19930;-78
2021/10/06 03:44:08;;;;;;;;;;;;;;;5.46;61.09;102633.16;4875092;29;20011;-76
2021/10/06 03:46:34;;;;;;;;;;;;;;;5.52;61.48;102628.31;4879807;29;20475;-76
2021/10/06 03:48:59;;;;;;;;;;;;;;;5.61;61.68;102622.81;4873674;29;20684;-80
2021/10/06 03:51:25;;;;;;;;;;;;;;;5.71;61.10;102632.84;4844866;29;20327;-76
2021/10/06 03:53:50;;;;;;;;;;;;;;;5.74;60.41;102626.94;4877259;29;20396;-78
2021/10/06 03:56:16;;;;;;;;;;;;;;;5.69;61.29;102616.34;4894250;29;19924;-79
2021/10/06 03:58:41;;;;;;;;;;;;;;;5.75;60.70;102628.72;4898211;29;19932;-75
2021/10/06 04:01:07;;;;;;;;;;;;;;;5.70;60.53;102631.06;4899555;29;19943;-75
2021/10/06 04:03:33;;;;;;;;;;;;;;;5.59;59.66;102642.50;4887563;29;19935;-77
2021/10/06 04:05:58;;;;;;;;;;;;;;;5.41;59.88;102634.56;4891952;29;19971;-77
2021/10/06 04:08:24;;;;;;;;;;;;;;;5.35;60.65;102640.28;4875574;29;19946;-75
2021/10/06 04:10:50;;;;;;;;;;;;;;;5.50;60.90;102640.28;4877151;29;19946;-76
2021/10/06 04:13:15;;;;;;;;;;;;;;;5.75;61.22;102633.88;4874061;29;19979;-77
2021/10/06 04:15:41;;;;;;;;;;;;;;;5.92;60.70;102637.41;4875146;29;19923;-77
2021/10/06 04:18:06;;;;;;;;;;;;;;;6.10;60.60;102642.75;4872777;29;20304;-77
2021/10/06 04:20:33;;;;;;;;;;;;;;;6.39;60.15;102643.47;4873843;29;19943;-77
2021/10/06 04:22:58;;;;;;;;;;;;;;;6.92;60.21;102639.34;4874708;29;19979;-78
2021/10/06 04:25:24;;;;;;;;;;;;;;;7.97;59.73;102637.50;4875404;29;19927;-75
2021/10/06 04:27:50;;;;;;;;;;;;;;;9.09;58.53;102629.50;4857483;29;20384;-75
2021/10/06 04:30:16;;;;;;;;;;;;;;;10.13;57.00;102637.13;4873783;29;19932;-77
2021/10/06 04:32:41;;;;;;;;;;;;;;;11.07;55.62;102628.34;4856901;29;20360;-76
2021/10/06 04:35:07;;;;;;;;;;;;;;;11.89;54.42;102637.13;4857281;29;19932;-76
2021/10/06 04:37:33;;;;;;;;;;;;;;;12.58;52.56;102632.19;4869337;29;19928;-76
2021/10/06 04:39:59;;;;;;;;;;;;;;;13.06;52.01;102624.75;4881394;29;19927;-77
2021/10/06 04:42:24;;;;;;;;;;;;;;;13.61;51.24;102625.25;4873376;29;20006;-75
2021/10/06 04:44:53;;;;;;;;;;;;;;;14.10;50.25;102628.06;4842969;29;19928;-77
2021/10/06 04:47:28;;;;;;;;;;;;;;;14.75;49.80;102621.53;4873768;29;19959;-77
2021/10/06 04:49:56;;;;;;;;;;;;;;;15.01;47.36;102623.75;4841928;29;19928;-78
2021/10/06 04:52:22;;;;;;;;;;;;;;;15.19;45.57;102617.94;4873183;29;19949;-76
2021/10/06 04:54:48;;;;;;;;;;;;;;;15.61;47.59;102621.22;4872438;29;20443;-78
2021/10/06 04:57:14;;;;;;;;;;;;;;;16.10;46.05;102620.19;4873568;29;20428;-75
2021/10/06 04:59:39;;;;;;;;;;;;;;;17.05;46.50;102624.75;4868863;29;20388;-78
2021/10/06 05:02:05;;;;;;;;;;;;;;;17.59;44.87;102626.91;4872164;29;19928;-77
2021/10/06 05:04:32;;;;;;;;;;;;;;;18.04;43.66;102621.94;4872398;29;19932;-78
2021/10/06 05:06:57;;;;;;;;;;;;;;;18.24;41.94;102627.28;4872523;29;20504;-76
2021/10/06 05:09:25;;;;;;;;;;;;;;;18.46;43.09;102627.34;4873175;29;20010;-77
2021/10/06 05:11:51;;;;;;;;;;;;;;;19.30;42.20;102622.22;4857494;29;19930;-76
2021/10/06 05:14:23;;;;;;;;;;;;;;;20.04;40.88;102622.06;4872738;29;19959;-75
2021/10/06 05:17:09;;;;;;;;;;;;;;;20.57;39.54;102621.84;4873089;29;19924;-76
2021/10/06 05:19:43;;;;;;;;;;;;;;;21.37;38.79;102615.94;4859154;29;20029;-79
2021/10/06 05:22:08;;;;;;;;;;;;;;;22.32;38.36;102614.00;4875978;29;19931;-76
2021/10/06 05:24:34;;;;;;;;;;;;;;;23.00;36.30;102610.34;4844116;29;19927;-76
2021/10/06 05:27:00;;;;;;;;;;;;;;;23.30;35.34;102610.75;4860373;29;20689;-76
2021/10/06 05:29:25;;;;;;;;;;;;;;;23.58;35.87;102613.78;4877579;29;19934;-77
2021/10/06 05:31:51;;;;;;;;;;;;;;;24.04;35.18;102605.81;4877354;29;19934;-75
2021/10/06 05:34:17;;;;;;;;;;;;;;;24.51;33.65;102608.31;4861053;29;19970;-78
2021/10/06 05:36:42;;;;;;;;;;;;;;;24.44;32.46;102607.59;4875782;29;19924;-76
2021/10/06 05:39:08;;;;;;;;;;;;;;;24.27;33.84;102609.75;4877596;29;19979;-75
2021/10/06 05:41:33;;;;;;;;;;;;;;;24.53;33.93;102611.81;4877001;29;19931;-76
2021/10/06 05:43:59;;;;;;;;;;;;;;;25.04;33.54;102609.75;4878221;29;19951;-76
2021/10/06 05:46:27;;;;;;;;;;;;;;;25.62;31.81;102611.78;4890423;29;19923;-79
2021/10/06 05:48:56;;;;;;;;;;;;;;;25.60;30.89;102610.94;4880998;29;19999;-77
2021/10/06 05:51:22;;;;;;;;;;;;;;;24.70;31.56;102610.53;4897564;29;19931;-76
2021/10/06 05:53:50;;;;;;;;;;;;;;;24.18;31.19;102617.03;4884528;29;20056;-76
2021/10/06 05:56:16;;;;;;;;;;;;;;;25.24;30.85;102610.09;4876083;29;19927;-76
2021/10/06 05:58:41;;;;;;;;;;;;;;;25.82;29.21;102609.41;4890968;29;19938;-76
2021/10/06 06:01:07;;;;;;;;;;;;;;;26.97;28.34;102605.00;4860671;29;20348;-77
2021/10/06 06:03:33;;;;;;;;;;;;;;;25.77;28.00;102605.13;4877552;29;19927;-76
2021/10/06 06:05:59;;;;;;;;;;;;;;;25.83;28.71;102613.84;4875170;29;19963;-76
2021/10/06 06:08:27;;;;;;;;;;;;;;;26.76;27.90;102605.69;4889914;29;19927;-78
2021/10/06 06:10:53;;;;;;;;;;;;;;;27.43;27.17;102611.41;4877414;29;20416;-78
2021/10/06 06:13:19;;;;;;;;;;;;;;;27.24;26.57;102608.56;4879185;29;20006;-78
2021/10/06 06:15:46;;;;;;;;;;;;;;;27.30;24.78;102616.31;4880221;29;19939;-75
2021/10/06 06:18:18;;;;;;;;;;;;;;;27.18;26.42;102622.13;4876465;29;20300;-77
2021/10/06 06:20:47;;;;;;;;;;;;;;;27.87;24.72;102618.78;4859870;29;20014;-78
2021/10/06 06:23:22;;;;;;;;;;;;;;;28.19;25.02;102616.69;4875087;29;19931;-77
2021/10/06 06:25:50;;;;;;;;;;;;;;;28.07;25.02;102609.97;4858293;29;20307;-77
2021/10/06 06:28:16;;;;;;;;;;;;;;;28.15;23.85;102609.69;4875879;29;19928;-78
2021/10/06 06:30:44;;;;;;;;;;;;;;;28.32;24.75;102609.03;4875914;29;19924;-78
2021/10/06 06:33:10;;;;;;;;;;;;;;;29.49;24.11;102601.53;4875334;29;19924;-79
2021/10/06 06:35:35;;;;;;;;;;;;;;;30.04;21.87;102607.06;4874457;29;20396;-77
2021/10/06 06:38:01;;;;;;;;;;;;;;;29.49;22.04;102596.16;4858606;29;19924;-77
2021/10/06 06:40:27;;;;;;;;;;;;;;;28.30;22.62;102610.03;4875022;29;19928;-77
2021/10/06 06:42:52;;;;;;;;;;;;;;;28.24;23.06;102612.03;4874059;29;20032;-77
2021/10/06 06:45:18;;;;;;;;;;;;;;;28.96;21.80;102611.84;4859171;29;19963;-77
2021/10/06 06:47:44;;;;;;;;;;;;;;;29.18;22.22;102606.41;4874778;29;19924;-77
2021/10/06 06:50:13;;;;;;;;;;;;;;;29.60;22.10;102605.47;4858912;29;19924;-76
2021/10/06 06:52:38;;;;;;;;;;;;;;;29.85;21.15;102596.28;4857774;29;19924;-77
2021/10/06 06:55:04;;;;;;;;;;;;;;;31.36;20.96;102594.28;4874605;29;19968;-77
2021/10/06 06:57:30;;;;;;;;;;;;;;;32.33;19.14;102600.69;4853638;29;20265;-78
2021/10/06 07:00:05;;;;;;;;;;;;;;;31.35;20.44;102601.47;4874768;29;19984;-78
2021/10/06 07:02:31;;;;;;;;;;;;;;;31.07;20.60;102599.34;4875095;29;20018;-76
2021/10/06 07:04:57;;;;;;;;;;;;;;;32.34;20.08;102597.88;4873239;29;20374;-76
2021/10/06 07:07:22;;;;;;;;;;;;;;;32.51;19.08;102596.91;4873563;29;20435;-76
2021/10/06 07:09:49;;;;;;;;;;;;;;;32.70;19.29;102596.69;4857355;29;20392;-78
2021/10/06 07:12:24;;;;;;;;;;;;;;;33.07;19.21;102601.72;4873120;29;19928;-78
2021/10/06 07:14:50;;;;;;;;;;;;;;;33.44;18.70;102599.47;4872681;29;20401;-77
2021/10/06 07:17:18;;;;;;;;;;;;;;;34.29;18.59;102600.44;4873703;29;19924;-78
2021/10/06 07:19:46;;;;;;;;;;;;;;;34.29;17.96;102598.56;4874048;29;19928;-76
2021/10/06 07:22:12;;;;;;;;;;;;;;;35.01;17.93;102588.44;4858558;29;19950;-76
2021/10/06 07:24:38;;;;;;;;;;;;;;;35.12;17.32;102596.63;4872881;29;19931;-78
2021/10/06 07:27:04;;;;;;;;;;;;;;;35.70;17.39;102588.94;4874797;29;19928;-79
2021/10/06 07:29:30;;;;;;;;;;;;;;;34.91;17.99;102597.13;4842447;29;20015;-77
2021/10/06 07:31:55;;;;;;;;;;;;;;;35.99;16.78;102591.38;4875100;29;19923;-77
2021/10/06 07:34:21;;;;;;;;;;;;;;;36.89;16.70;102591.88;4874311;29;20380;-76
2021/10/06 07:36:47;;;;;;;;;;;;;;;36.15;16.32;102590.22;4886721;29;19954;-74
2021/10/06 07:39:13;;;;;;;;;;;;;;;36.32;16.21;102597.09;4898639;29;19924;-77
2021/10/06 07:41:39;;;;;;;;;;;;;;;35.83;16.75;102598.88;4891295;29;19923;-77
2021/10/06 07:44:05;;;;;;;;;;;;;;;35.61;16.05;102599.56;4878171;29;19923;-76
2021/10/06 07:46:31;;;;;;;;;;;;;;;35.85;16.35;102596.91;4857642;29;19923;-78
2021/10/06 07:48:56;;;;;;;;;;;;;;;36.73;15.58;102592.22;4856549;29;19927;-76
2021/10/06 07:51:22;;;;;;;;;;;;;;;36.38;15.23;102595.75;4843228;29;19931;-75
2021/10/06 07:53:48;;;;;;;;;;;;;;;34.68;15.46;102607.69;4859008;29;20023;-79
2021/10/06 07:56:13;;;;;;;;;;;;;;;34.13;16.33;102595.16;4872678;29;19936;-78
2021/10/06 07:58:39;;;;;;;;;;;;;;;34.64;15.99;102600.78;4874019;29;19956;-78
2021/10/06 08:01:05;;;;;;;;;;;;;;;34.78;15.90;102598.97;4874079;29;19924;-77
2021/10/06 08:03:34;;;;;;;;;;;;;;;35.47;15.37;102589.72;4874602;29;19995;-79
2021/10/06 08:06:01;;;;;;;;;;;;;;;35.29;14.93;102596.34;4868456;29;20487;-77
2021/10/06 08:08:27;;;;;;;;;;;;;;;34.86;15.12;102593.03;4859040;29;20002;-77
2021/10/06 08:10:54;;;;;;;;;;;;;;;34.24;15.60;102603.41;4887744;29;21124;-77
2021/10/06 08:13:20;;;;;;;;;;;;;;;33.83;15.85;102605.13;4878804;29;19948;-79
2021/10/06 08:15:54;;;;;;;;;;;;;;;33.63;15.99;102593.78;4861572;29;19928;-77
2021/10/06 08:18:20;;;;;;;;;;;;;;;34.06;15.26;102597.41;4874849;29;19931;-77
2021/10/06 08:20:47;;;;;;;;;;;;;;;34.36;15.55;102601.72;4855997;29;19927;-77
2021/10/06 08:23:16;;;;;;;;;;;;;;;34.35;15.33;102597.28;4874932;29;19927;-78
2021/10/06 08:25:45;;;;;;;;;;;;;;;34.14;14.65;102595.06;4869794;29;19932;-77
2021/10/06 08:28:11;;;;;;;;;;;;;;;34.02;14.76;102593.19;4859751;29;20281;-78
2021/10/06 08:30:37;;;;;;;;;;;;;;;34.20;14.31;102593.81;4858799;29;19984;-77
2021/10/06 08:33:05;;;;;;;;;;;;;;;33.92;15.28;102590.22;4860039;29;20345;-77
2021/10/06 08:35:31;;;;;;;;;;;;;;;35.32;14.26;102586.25;4860395;29;19931;-76
2021/10/06 08:37:58;;;;;;;;;;;;;;;36.26;14.25;102590.28;4877460;29;20060;-78
2021/10/06 08:40:24;;;;;;;;;;;;;;;36.54;13.85;102582.78;4879897;29;19951;-77
2021/10/06 08:42:49;;;;;;;;;;;;;;;37.68;13.38;102581.09;4884011;29;19999;-76
2021/10/06 08:45:15;;;;;;;;;;;;;;;37.33;13.59;102578.50;4883523;29;19932;-76
2021/10/06 08:47:41;;;;;;;;;;;;;;;37.52;13.39;102572.47;4883759;29;19923;-78
2021/10/06 08:50:09;;;;;;;;;;;;;;;37.98;13.13;102576.00;4892094;29;19952;-77
2021/10/06 08:52:34;;;;;;;;;;;;;;;38.38;13.25;102578.09;4893494;29;20019;-77
2021/10/06 08:55:04;;;;;;;;;;;;;;;39.08;12.82;102574.84;4882074;29;19931;-78
2021/10/06 08:57:30;;;;;;;;;;;;;;;38.49;13.21;102581.78;4878984;29;19946;-78
2021/10/06 08:59:55;;;;;;;;;;;;;;;38.53;12.77;102577.78;4890003;29;20027;-76
2021/10/06 09:02:21;;;;;;;;;;;;;;;38.76;13.31;102572.19;4889398;29;19953;-80
2021/10/06 09:04:47;;;;;;;;;;;;;;;38.50;13.08;102569.91;4871800;29;19927;-77
2021/10/06 09:07:13;;;;;;;;;;;;;;;39.49;12.81;102564.00;4883892;29;20624;-78
2021/10/06 09:09:47;;;;;;;;;;;;;;;38.62;12.69;102566.09;4870949;29;19965;-76
2021/10/06 09:12:17;;;;;;;;;;;;;;;39.23;12.48;102559.00;4877746;29;19987;-79
2021/10/06 09:14:46;;;;;;;;;;;;;;;39.88;12.23;102558.66;4877060;29;19967;-78
2021/10/06 09:17:13;;;;;;;;;;;;;;;39.43;12.40;102559.97;4877998;29;19924;-77
2021/10/06 09:19:40;;;;;;;;;;;;;;;40.02;12.51;102548.38;4877822;29;19924;-77
2021/10/06 09:22:27;;;;;;;;;;;;;;;39.72;11.93;102561.94;4881601;29;19924;-75
2021/10/06 09:24:55;;;;;;;;;;;;;;;38.23;12.59;102558.47;4857975;29;19931;-76
2021/10/06 09:27:25;;;;;;;;;;;;;;;38.69;12.53;102559.16;4900649;29;19940;-76
2021/10/06 09:29:52;;;;;;;;;;;;;;;38.44;12.20;102554.94;4900740;29;19975;-77
2021/10/06 09:32:24;;;;;;;;;;;;;;;37.18;12.48;102548.91;4893887;29;19947;-76
2021/10/06 09:35:05;;;;;;;;;;;;;;;35.12;13.18;102561.47;4865885;29;20296;-76
2021/10/06 09:37:37;;;;;;;;;;;;;;;35.87;13.21;102547.06;4857622;29;19928;-79
2021/10/06 09:40:04;;;;;;;;;;;;;;;36.20;12.60;102547.38;4854559;29;19924;-78
2021/10/06 09:42:38;;;;;;;;;;;;;;;35.62;13.02;102557.97;4878092;29;19928;-77
2021/10/06 09:45:04;;;;;;;;;;;;;;;34.58;13.09;102562.47;4877720;29;19969;-77
2021/10/06 09:47:32;;;;;;;;;;;;;;;34.08;14.01;102555.81;4876551;29;20404;-78
2021/10/06 09:49:59;;;;;;;;;;;;;;;33.88;14.20;102551.69;4875109;29;19928;-78
2021/10/06 09:52:27;;;;;;;;;;;;;;;34.29;13.20;102552.66;4876544;29;19924;-76
2021/10/06 09:54:57;;;;;;;;;;;;;;;33.93;13.75;102544.19;4876639;29;19963;-77
2021/10/06 09:57:23;;;;;;;;;;;;;;;33.28;13.34;102545.59;4876903;29;20374;-75
2021/10/06 09:59:50;;;;;;;;;;;;;;;30.87;14.77;102550.19;4859734;29;19924;-77
2021/10/06 10:02:17;;;;;;;;;;;;;;;29.30;15.44;102554.06;4874550;29;19983;-77
2021/10/06 10:04:43;;;;;;;;;;;;;;;27.35;16.87;102555.56;4860128;29;19928;-77
2021/10/06 10:07:08;;;;;;;;;;;;;;;26.00;17.85;102561.78;4875708;29;19930;-77
2021/10/06 10:09:35;;;;;;;;;;;;;;;24.83;17.90;102564.06;4859635;29;19928;-76
2021/10/06 10:12:01;;;;;;;;;;;;;;;24.28;18.64;102569.81;4876992;29;19923;-77
2021/10/06 10:14:27;;;;;;;;;;;;;;;23.80;19.12;102567.28;4867981;29;19947;-76
2021/10/06 10:16:52;;;;;;;;;;;;;;;22.99;19.43;102560.81;4895938;29;19947;-76
2021/10/06 10:19:18;;;;;;;;;;;;;;;22.37;20.00;102561.78;4889493;29;19940;-76
2021/10/06 10:21:45;;;;;;;;;;;;;;;21.95;20.11;102565.88;4880023;29;19932;-76
2021/10/06 10:24:15;;;;;;;;;;;;;;;21.60;20.30;102564.50;4861304;29;19946;-76
2021/10/06 10:26:59;;;;;;;;;;;;;;;20.98;20.39;102564.22;4878160;29;19927;-76
2021/10/06 10:29:37;;;;;;;;;;;;;;;20.17;21.50;102562.13;4875363;29;19930;-78
2021/10/06 10:32:07;;;;;;;;;;;;;;;19.74;21.76;102560.53;4838843;29;20260;-76
2021/10/06 10:35:11;;;;;;;;;;;;;;;19.63;21.73;102559.66;4877062;29;19974;-76
2021/10/06 10:37:50;;;;;;;;;;;;;;;19.23;22.17;102564.16;4821927;29;19929;-77
2021/10/06 10:40:42;;;;;;;;;;;;;;;18.54;22.58;102564.13;4856318;29;20392;-76
2021/10/06 10:43:07;;;;;;;;;;;;;;;18.11;23.36;102564.88;4872592;29;19924;-75
2021/10/06 10:45:36;;;;;;;;;;;;;;;17.83;23.67;102562.09;4875795;29;19924;-77
2021/10/06 10:48:03;;;;;;;;;;;;;;;17.61;23.71;102568.13;4862231;29;19976;-76
2021/10/06 10:50:48;;;;;;;;;;;;;;;17.11;24.47;102558.16;4877112;29;19915;-76
2021/10/06 10:53:24;;;;;;;;;;;;;;;17.03;25.28;102563.34;4865959;29;19973;-76
2021/10/06 10:56:03;;;;;;;;;;;;;;;16.94;25.17;102561.50;4845163;29;19955;-76
2021/10/06 10:58:33;;;;;;;;;;;;;;;16.92;25.38;102571.13;4875815;29;19927;-76
2021/10/06 11:01:12;;;;;;;;;;;;;;;16.94;25.34;102563.22;4875530;29;19927;-76
2021/10/06 11:03:56;;;;;;;;;;;;;;;16.65;25.34;102558.63;4870582;29;19928;-77
2021/10/06 11:06:37;;;;;;;;;;;;;;;16.49;25.83;102557.56;4876483;29;19924;-76
2021/10/06 11:09:25;;;;;;;;;;;;;;;16.38;25.49;102557.47;4874235;29;19967;-75
2021/10/06 11:12:12;;;;;;;;;;;;;;;16.20;26.20;102556.41;4837391;29;20291;-77
2021/10/06 11:14:41;;;;;;;;;;;;;;;16.02;26.07;102548.28;4857934;29;19924;-76
2021/10/06 11:17:06;;;;;;;;;;;;;;;15.85;26.76;102554.16;4877537;29;19924;-77
2021/10/06 11:19:39;;;;;;;;;;;;;;;15.89;26.73;102548.13;4874063;29;19931;-78
2021/10/06 11:22:23;;;;;;;;;;;;;;;15.79;26.93;102557.59;4890795;29;19943;-74
2021/10/06 11:24:53;;;;;;;;;;;;;;;15.54;27.12;102550.25;4884016;29;19928;-77
2021/10/06 11:27:20;;;;;;;;;;;;;;;15.52;27.44;102551.09;4874767;29;19923;-78
2021/10/06 11:29:47;;;;;;;;;;;;;;;15.40;27.73;102548.31;4875259;29;19963;-76
2021/10/06 11:32:16;;;;;;;;;;;;;;;15.46;27.74;102550.16;4859967;29;19931;-75
2021/10/06 11:34:46;;;;;;;;;;;;;;;15.31;27.38;102551.69;4877329;29;19924;-75
2021/10/06 11:37:19;;;;;;;;;;;;;;;15.06;28.07;102556.56;4859608;29;19923;-76
2021/10/06 11:39:45;;;;;;;;;;;;;;;14.95;28.76;102550.22;4876096;29;20400;-77
2021/10/06 11:42:11;;;;;;;;;;;;;;;14.79;29.29;102558.69;4874507;29;19970;-76
2021/10/06 11:44:40;;;;;;;;;;;;;;;14.79;29.42;102567.44;4858879;29;19924;-76
2021/10/06 11:47:09;;;;;;;;;;;;;;;14.68;29.71;102559.38;4873395;29;20284;-77
2021/10/06 11:49:37;;;;;;;;;;;;;;;14.66;29.50;102558.47;4873236;29;19930;-77
2021/10/06 11:52:04;;;;;;;;;;;;;;;14.62;29.46;102546.16;4874037;29;19928;-76
2021/10/06 11:54:29;;;;;;;;;;;;;;;14.60;29.64;102547.84;4874390;29;19924;-77
2021/10/06 11:57:00;;;;;;;;;;;;;;;14.56;29.80;102546.03;4874239;29;20428;-78
2021/10/06 11:59:27;;;;;;;;;;;;;;;14.60;29.78;102547.84;4873205;29;19975;-78
2021/10/06 12:02:04;;;;;;;;;;;;;;;14.43;29.91;102544.91;4872838;29;19946;-77
2021/10/06 12:04:34;;;;;;;;;;;;;;;14.33;30.27;102550.84;4847717;29;19931;-75
2021/10/06 12:07:02;;;;;;;;;;;;;;;14.25;30.55;102553.28;4878872;29;19943;-77
2021/10/06 12:09:33;;;;;;;;;;;;;;;14.32;30.42;102552.56;4872015;29;19927;-77
2021/10/06 12:11:58;;;;;;;;;;;;;;;14.34;30.37;102553.50;4856923;29;19924;-76
2021/10/06 12:14:33;;;;;;;;;;;;;;;14.34;30.08;102545.63;4874410;29;19931;-74
2021/10/06 12:17:02;;;;;;;;;;;;;;;14.15;30.48;102540.03;4873413;29;19924;-75
2021/10/06 12:19:27;;;;;;;;;;;;;;;14.04;30.82;102541.53;4875636;29;19932;-74
2021/10/06 12:21:53;;;;;;;;;;;;;;;13.99;31.03;102540.59;4889038;29;19928;-78
2021/10/06 12:24:37;;;;;;;;;;;;;;;14.00;31.06;102542.34;4888008;29;19935;-76
2021/10/06 12:27:23;;;;;;;;;;;;;;;13.86;31.09;102532.47;4873228;29;20348;-77
2021/10/06 12:30:02;;;;;;;;;;;;;;;13.68;31.68;102534.69;4889826;29;19986;-77
2021/10/06 12:32:30;;;;;;;;;;;;;;;13.57;32.31;102544.06;4858717;29;19982;-76
2021/10/06 12:35:02;;;;;;;;;;;;;;;13.60;32.63;102536.25;4873224;29;20363;-77
2021/10/06 12:37:28;;;;;;;;;;;;;;;13.67;32.36;102535.53;4862975;29;20011;-75
2021/10/06 12:39:54;;;;;;;;;;;;;;;13.67;32.17;102532.94;4873163;29;20558;-78
2021/10/06 12:42:19;;;;;;;;;;;;;;;13.55;32.32;102531.81;4857405;29;19951;-76